<?xml version="1.0" encoding="UTF-8" standalone="no" ?>
<gpx xmlns="http://www.topografix.com/GPX/1/1" xmlns:xsi="http://www.w3.org/2001/XMLSchema-instance" xsi:schemaLocation="http://www.topografix.com/GPX/1/1 http://www.topografix.com/GPX/1/1/gpx.xsd" version="1.1" creator="VisuGPX - https://www.visugpx.com">
  <metadata>
    <name>Belonseiche - Arnousse</name>
    <desc><![CDATA[Rando en 2 partie.
Jolie descente a ski.
Aucune difficulté.]]></desc>
  </metadata>
  <trk>
    <name><![CDATA[2019-03-23 belonseiche arnouse]]></name>
    <desc><![CDATA[<p>Heure de départ: 03/23/2019 10:12<br/>Heure d'arrivée: 03/23/2019 16:09<br/>Distance: 10,9 km (05:57)<br/>Temps déplacement: 01:30<br/>Vitesse moyenne: 1,83 km/h<br/>Vitesse moyenne mouv.: 7,26 km/h<br/>Vitesse Max.: 36,28 km/h<br/>Altitude minimale: 1425 m<br/>Altitude maximale: 2151 m<br/>Vitesse de montée: 262,2 m/h<br/>Vitesse de descente: -761,3 m/h<br/>Gain d'altitude: 1159 m<br/>Perte d'altitude: -1163 m<br/>Temps de montée: 04:25<br/>Temps de descente: 01:31<br/></p><hr align="center" width="480" style="height: 2px; width: 517px"/>]]></desc>
    <trkseg>
      <trkpt lat="42.80979" lon="-0.51111">
        <ele>1660.86</ele>
        <time>2019-03-23T09:12:48Z</time>
      </trkpt>
      <trkpt lat="42.80983" lon="-0.51086">
        <ele>1666.2</ele>
        <time>2019-03-23T09:14:00Z</time>
      </trkpt>
      <trkpt lat="42.80993" lon="-0.51064">
        <ele>1669.56</ele>
        <time>2019-03-23T09:14:26Z</time>
      </trkpt>
      <trkpt lat="42.80995" lon="-0.51038">
        <ele>1669.78</ele>
        <time>2019-03-23T09:14:42Z</time>
      </trkpt>
      <trkpt lat="42.81006" lon="-0.51019">
        <ele>1670.65</ele>
        <time>2019-03-23T09:15:00Z</time>
      </trkpt>
      <trkpt lat="42.81015" lon="-0.50998">
        <ele>1664.24</ele>
        <time>2019-03-23T09:15:27Z</time>
      </trkpt>
      <trkpt lat="42.81011" lon="-0.50973">
        <ele>1666.02</ele>
        <time>2019-03-23T09:15:33Z</time>
      </trkpt>
      <trkpt lat="42.81011" lon="-0.50946">
        <ele>1675.62</ele>
        <time>2019-03-23T09:15:43Z</time>
      </trkpt>
      <trkpt lat="42.81014" lon="-0.50921">
        <ele>1680.39</ele>
        <time>2019-03-23T09:15:56Z</time>
      </trkpt>
      <trkpt lat="42.81017" lon="-0.50895">
        <ele>1684.14</ele>
        <time>2019-03-23T09:16:10Z</time>
      </trkpt>
      <trkpt lat="42.81025" lon="-0.50872">
        <ele>1686.19</ele>
        <time>2019-03-23T09:16:24Z</time>
      </trkpt>
      <trkpt lat="42.81026" lon="-0.50848">
        <ele>1687.87</ele>
        <time>2019-03-23T09:16:40Z</time>
      </trkpt>
      <trkpt lat="42.81031" lon="-0.50824">
        <ele>1688.18</ele>
        <time>2019-03-23T09:16:56Z</time>
      </trkpt>
      <trkpt lat="42.81036" lon="-0.50799">
        <ele>1690.69</ele>
        <time>2019-03-23T09:17:14Z</time>
      </trkpt>
      <trkpt lat="42.8104" lon="-0.50775">
        <ele>1689.01</ele>
        <time>2019-03-23T09:17:33Z</time>
      </trkpt>
      <trkpt lat="42.81045" lon="-0.50751">
        <ele>1687.3</ele>
        <time>2019-03-23T09:17:50Z</time>
      </trkpt>
      <trkpt lat="42.81049" lon="-0.50726">
        <ele>1686.1</ele>
        <time>2019-03-23T09:18:07Z</time>
      </trkpt>
      <trkpt lat="42.81054" lon="-0.50701">
        <ele>1683.26</ele>
        <time>2019-03-23T09:18:24Z</time>
      </trkpt>
      <trkpt lat="42.8105" lon="-0.50675">
        <ele>1681.22</ele>
        <time>2019-03-23T09:18:40Z</time>
      </trkpt>
      <trkpt lat="42.81053" lon="-0.50649">
        <ele>1680.41</ele>
        <time>2019-03-23T09:18:58Z</time>
      </trkpt>
      <trkpt lat="42.81056" lon="-0.50624">
        <ele>1678.67</ele>
        <time>2019-03-23T09:19:12Z</time>
      </trkpt>
      <trkpt lat="42.81065" lon="-0.50601">
        <ele>1675.91</ele>
        <time>2019-03-23T09:19:28Z</time>
      </trkpt>
      <trkpt lat="42.81069" lon="-0.50577">
        <ele>1673.79</ele>
        <time>2019-03-23T09:19:43Z</time>
      </trkpt>
      <trkpt lat="42.81073" lon="-0.50552">
        <ele>1673.1</ele>
        <time>2019-03-23T09:19:57Z</time>
      </trkpt>
      <trkpt lat="42.81079" lon="-0.50528">
        <ele>1674.21</ele>
        <time>2019-03-23T09:20:14Z</time>
      </trkpt>
      <trkpt lat="42.81074" lon="-0.50504">
        <ele>1676.36</ele>
        <time>2019-03-23T09:20:35Z</time>
      </trkpt>
      <trkpt lat="42.81056" lon="-0.50509">
        <ele>1676.19</ele>
        <time>2019-03-23T09:21:05Z</time>
      </trkpt>
      <trkpt lat="42.81043" lon="-0.50492">
        <ele>1676.92</ele>
        <time>2019-03-23T09:21:27Z</time>
      </trkpt>
      <trkpt lat="42.81051" lon="-0.5047">
        <ele>1678.88</ele>
        <time>2019-03-23T09:24:02Z</time>
      </trkpt>
      <trkpt lat="42.81056" lon="-0.50446">
        <ele>1683.45</ele>
        <time>2019-03-23T09:25:40Z</time>
      </trkpt>
      <trkpt lat="42.81074" lon="-0.5044">
        <ele>1688.74</ele>
        <time>2019-03-23T09:26:29Z</time>
      </trkpt>
      <trkpt lat="42.81073" lon="-0.50416">
        <ele>1695.35</ele>
        <time>2019-03-23T09:27:04Z</time>
      </trkpt>
      <trkpt lat="42.8109" lon="-0.50405">
        <ele>1704.21</ele>
        <time>2019-03-23T09:27:59Z</time>
      </trkpt>
      <trkpt lat="42.81109" lon="-0.5039">
        <ele>1710.6</ele>
        <time>2019-03-23T09:29:10Z</time>
      </trkpt>
      <trkpt lat="42.81121" lon="-0.50372">
        <ele>1717.62</ele>
        <time>2019-03-23T09:29:48Z</time>
      </trkpt>
      <trkpt lat="42.81138" lon="-0.50361">
        <ele>1724.04</ele>
        <time>2019-03-23T09:30:13Z</time>
      </trkpt>
      <trkpt lat="42.81157" lon="-0.50365">
        <ele>1724.52</ele>
        <time>2019-03-23T09:32:09Z</time>
      </trkpt>
      <trkpt lat="42.81175" lon="-0.50351">
        <ele>1732.96</ele>
        <time>2019-03-23T09:33:25Z</time>
      </trkpt>
      <trkpt lat="42.81183" lon="-0.50329">
        <ele>1742.16</ele>
        <time>2019-03-23T09:34:12Z</time>
      </trkpt>
      <trkpt lat="42.812" lon="-0.50336">
        <ele>1743.98</ele>
        <time>2019-03-23T09:34:41Z</time>
      </trkpt>
      <trkpt lat="42.81211" lon="-0.50315">
        <ele>1745.86</ele>
        <time>2019-03-23T09:35:33Z</time>
      </trkpt>
      <trkpt lat="42.81228" lon="-0.50325">
        <ele>1751.91</ele>
        <time>2019-03-23T09:35:59Z</time>
      </trkpt>
      <trkpt lat="42.81244" lon="-0.50314">
        <ele>1758.67</ele>
        <time>2019-03-23T09:36:46Z</time>
      </trkpt>
      <trkpt lat="42.8126" lon="-0.50302">
        <ele>1762.96</ele>
        <time>2019-03-23T09:37:24Z</time>
      </trkpt>
      <trkpt lat="42.81272" lon="-0.50283">
        <ele>1765.8</ele>
        <time>2019-03-23T09:37:53Z</time>
      </trkpt>
      <trkpt lat="42.81288" lon="-0.50273">
        <ele>1771.13</ele>
        <time>2019-03-23T09:38:27Z</time>
      </trkpt>
      <trkpt lat="42.81305" lon="-0.50263">
        <ele>1776.15</ele>
        <time>2019-03-23T09:39:02Z</time>
      </trkpt>
      <trkpt lat="42.81317" lon="-0.50244">
        <ele>1783.92</ele>
        <time>2019-03-23T09:39:36Z</time>
      </trkpt>
      <trkpt lat="42.81335" lon="-0.5024">
        <ele>1792.2</ele>
        <time>2019-03-23T09:40:12Z</time>
      </trkpt>
      <trkpt lat="42.81353" lon="-0.50236">
        <ele>1795.19</ele>
        <time>2019-03-23T09:40:43Z</time>
      </trkpt>
      <trkpt lat="42.81372" lon="-0.50236">
        <ele>1802.34</ele>
        <time>2019-03-23T09:41:25Z</time>
      </trkpt>
      <trkpt lat="42.81388" lon="-0.50245">
        <ele>1809.78</ele>
        <time>2019-03-23T09:41:57Z</time>
      </trkpt>
      <trkpt lat="42.81402" lon="-0.50228">
        <ele>1816.67</ele>
        <time>2019-03-23T09:42:27Z</time>
      </trkpt>
      <trkpt lat="42.81417" lon="-0.50214">
        <ele>1822.71</ele>
        <time>2019-03-23T09:43:04Z</time>
      </trkpt>
      <trkpt lat="42.81435" lon="-0.50211">
        <ele>1831.86</ele>
        <time>2019-03-23T09:44:08Z</time>
      </trkpt>
      <trkpt lat="42.81455" lon="-0.50215">
        <ele>1828.61</ele>
        <time>2019-03-23T09:44:35Z</time>
      </trkpt>
      <trkpt lat="42.81471" lon="-0.50227">
        <ele>1830.81</ele>
        <time>2019-03-23T09:45:00Z</time>
      </trkpt>
      <trkpt lat="42.81489" lon="-0.50234">
        <ele>1833.55</ele>
        <time>2019-03-23T09:47:42Z</time>
      </trkpt>
      <trkpt lat="42.81506" lon="-0.50242">
        <ele>1839.64</ele>
        <time>2019-03-23T09:48:17Z</time>
      </trkpt>
      <trkpt lat="42.81522" lon="-0.50253">
        <ele>1845.15</ele>
        <time>2019-03-23T09:48:47Z</time>
      </trkpt>
      <trkpt lat="42.8154" lon="-0.50261">
        <ele>1849.35</ele>
        <time>2019-03-23T09:49:14Z</time>
      </trkpt>
      <trkpt lat="42.81557" lon="-0.50267">
        <ele>1852.54</ele>
        <time>2019-03-23T09:49:43Z</time>
      </trkpt>
      <trkpt lat="42.81576" lon="-0.5027">
        <ele>1854.19</ele>
        <time>2019-03-23T09:50:12Z</time>
      </trkpt>
      <trkpt lat="42.81594" lon="-0.50276">
        <ele>1850.46</ele>
        <time>2019-03-23T09:50:39Z</time>
      </trkpt>
      <trkpt lat="42.81612" lon="-0.50282">
        <ele>1853.06</ele>
        <time>2019-03-23T09:51:04Z</time>
      </trkpt>
      <trkpt lat="42.81629" lon="-0.50287">
        <ele>1853.19</ele>
        <time>2019-03-23T09:51:28Z</time>
      </trkpt>
      <trkpt lat="42.81647" lon="-0.50295">
        <ele>1855.26</ele>
        <time>2019-03-23T09:51:51Z</time>
      </trkpt>
      <trkpt lat="42.81664" lon="-0.50307">
        <ele>1853.3</ele>
        <time>2019-03-23T09:52:22Z</time>
      </trkpt>
      <trkpt lat="42.81679" lon="-0.50323">
        <ele>1855.42</ele>
        <time>2019-03-23T09:52:48Z</time>
      </trkpt>
      <trkpt lat="42.81689" lon="-0.50344">
        <ele>1855.7</ele>
        <time>2019-03-23T09:53:07Z</time>
      </trkpt>
      <trkpt lat="42.817" lon="-0.50365">
        <ele>1852.47</ele>
        <time>2019-03-23T09:53:30Z</time>
      </trkpt>
      <trkpt lat="42.81717" lon="-0.50374">
        <ele>1853.79</ele>
        <time>2019-03-23T09:54:04Z</time>
      </trkpt>
      <trkpt lat="42.81733" lon="-0.50384">
        <ele>1853.51</ele>
        <time>2019-03-23T09:54:27Z</time>
      </trkpt>
      <trkpt lat="42.81748" lon="-0.50399">
        <ele>1854.83</ele>
        <time>2019-03-23T09:54:54Z</time>
      </trkpt>
      <trkpt lat="42.81765" lon="-0.50407">
        <ele>1859.12</ele>
        <time>2019-03-23T09:55:23Z</time>
      </trkpt>
      <trkpt lat="42.81783" lon="-0.50413">
        <ele>1861.29</ele>
        <time>2019-03-23T09:55:52Z</time>
      </trkpt>
      <trkpt lat="42.818" lon="-0.50423">
        <ele>1865.89</ele>
        <time>2019-03-23T09:56:23Z</time>
      </trkpt>
      <trkpt lat="42.81815" lon="-0.50437">
        <ele>1867.29</ele>
        <time>2019-03-23T09:56:51Z</time>
      </trkpt>
      <trkpt lat="42.8183" lon="-0.5045">
        <ele>1869.44</ele>
        <time>2019-03-23T09:57:25Z</time>
      </trkpt>
      <trkpt lat="42.81846" lon="-0.50463">
        <ele>1868.04</ele>
        <time>2019-03-23T09:59:09Z</time>
      </trkpt>
      <trkpt lat="42.81861" lon="-0.50477">
        <ele>1867.8</ele>
        <time>2019-03-23T09:59:34Z</time>
      </trkpt>
      <trkpt lat="42.81873" lon="-0.50496">
        <ele>1871.94</ele>
        <time>2019-03-23T10:00:06Z</time>
      </trkpt>
      <trkpt lat="42.81882" lon="-0.50518">
        <ele>1875.75</ele>
        <time>2019-03-23T10:00:43Z</time>
      </trkpt>
      <trkpt lat="42.81893" lon="-0.50539">
        <ele>1885.09</ele>
        <time>2019-03-23T10:01:32Z</time>
      </trkpt>
      <trkpt lat="42.81903" lon="-0.50559">
        <ele>1882.81</ele>
        <time>2019-03-23T10:02:06Z</time>
      </trkpt>
      <trkpt lat="42.81911" lon="-0.50582">
        <ele>1889.01</ele>
        <time>2019-03-23T10:02:52Z</time>
      </trkpt>
      <trkpt lat="42.81916" lon="-0.50606">
        <ele>1895.52</ele>
        <time>2019-03-23T10:03:30Z</time>
      </trkpt>
      <trkpt lat="42.81926" lon="-0.50627">
        <ele>1895.06</ele>
        <time>2019-03-23T10:04:01Z</time>
      </trkpt>
      <trkpt lat="42.8194" lon="-0.50642">
        <ele>1898.53</ele>
        <time>2019-03-23T10:04:35Z</time>
      </trkpt>
      <trkpt lat="42.81957" lon="-0.50651">
        <ele>1905.11</ele>
        <time>2019-03-23T10:05:16Z</time>
      </trkpt>
      <trkpt lat="42.81962" lon="-0.50627">
        <ele>1919.38</ele>
        <time>2019-03-23T10:06:02Z</time>
      </trkpt>
      <trkpt lat="42.8198" lon="-0.50622">
        <ele>1933.16</ele>
        <time>2019-03-23T10:07:21Z</time>
      </trkpt>
      <trkpt lat="42.81995" lon="-0.50638">
        <ele>1938.45</ele>
        <time>2019-03-23T10:07:55Z</time>
      </trkpt>
      <trkpt lat="42.82005" lon="-0.50659">
        <ele>1940.49</ele>
        <time>2019-03-23T10:08:22Z</time>
      </trkpt>
      <trkpt lat="42.82016" lon="-0.50679">
        <ele>1943.86</ele>
        <time>2019-03-23T10:08:50Z</time>
      </trkpt>
      <trkpt lat="42.82028" lon="-0.50697">
        <ele>1945.62</ele>
        <time>2019-03-23T10:09:22Z</time>
      </trkpt>
      <trkpt lat="42.82028" lon="-0.50672">
        <ele>1954.33</ele>
        <time>2019-03-23T10:10:25Z</time>
      </trkpt>
      <trkpt lat="42.82046" lon="-0.50679">
        <ele>1960.66</ele>
        <time>2019-03-23T10:11:35Z</time>
      </trkpt>
      <trkpt lat="42.82064" lon="-0.50677">
        <ele>1963.69</ele>
        <time>2019-03-23T10:12:12Z</time>
      </trkpt>
      <trkpt lat="42.8208" lon="-0.50666">
        <ele>1972.64</ele>
        <time>2019-03-23T10:12:53Z</time>
      </trkpt>
      <trkpt lat="42.82098" lon="-0.50663">
        <ele>1981.17</ele>
        <time>2019-03-23T10:13:30Z</time>
      </trkpt>
      <trkpt lat="42.82116" lon="-0.5067">
        <ele>1981.56</ele>
        <time>2019-03-23T10:14:04Z</time>
      </trkpt>
      <trkpt lat="42.82134" lon="-0.50676">
        <ele>1986.69</ele>
        <time>2019-03-23T10:14:48Z</time>
      </trkpt>
      <trkpt lat="42.82133" lon="-0.50651">
        <ele>1992.6</ele>
        <time>2019-03-23T10:15:37Z</time>
      </trkpt>
      <trkpt lat="42.82131" lon="-0.50625">
        <ele>2000.53</ele>
        <time>2019-03-23T10:16:43Z</time>
      </trkpt>
      <trkpt lat="42.82148" lon="-0.50615">
        <ele>2002.9</ele>
        <time>2019-03-23T10:17:28Z</time>
      </trkpt>
      <trkpt lat="42.82163" lon="-0.506">
        <ele>2011.24</ele>
        <time>2019-03-23T10:18:11Z</time>
      </trkpt>
      <trkpt lat="42.8218" lon="-0.50588">
        <ele>2017.79</ele>
        <time>2019-03-23T10:18:41Z</time>
      </trkpt>
      <trkpt lat="42.82194" lon="-0.50573">
        <ele>2022.56</ele>
        <time>2019-03-23T10:19:10Z</time>
      </trkpt>
      <trkpt lat="42.82209" lon="-0.50557">
        <ele>2021.44</ele>
        <time>2019-03-23T10:19:59Z</time>
      </trkpt>
      <trkpt lat="42.8222" lon="-0.50576">
        <ele>2023.5</ele>
        <time>2019-03-23T10:20:34Z</time>
      </trkpt>
      <trkpt lat="42.82235" lon="-0.50591">
        <ele>2029.95</ele>
        <time>2019-03-23T10:21:02Z</time>
      </trkpt>
      <trkpt lat="42.82252" lon="-0.50601">
        <ele>2032.85</ele>
        <time>2019-03-23T10:21:29Z</time>
      </trkpt>
      <trkpt lat="42.82265" lon="-0.50618">
        <ele>2037.29</ele>
        <time>2019-03-23T10:29:11Z</time>
      </trkpt>
      <trkpt lat="42.82271" lon="-0.50641">
        <ele>2036.53</ele>
        <time>2019-03-23T10:29:39Z</time>
      </trkpt>
      <trkpt lat="42.82284" lon="-0.50659">
        <ele>2039.76</ele>
        <time>2019-03-23T10:30:09Z</time>
      </trkpt>
      <trkpt lat="42.82295" lon="-0.50679">
        <ele>2041.7</ele>
        <time>2019-03-23T10:30:38Z</time>
      </trkpt>
      <trkpt lat="42.82306" lon="-0.50699">
        <ele>2043.45</ele>
        <time>2019-03-23T10:31:12Z</time>
      </trkpt>
      <trkpt lat="42.82316" lon="-0.5072">
        <ele>2050.24</ele>
        <time>2019-03-23T10:31:52Z</time>
      </trkpt>
      <trkpt lat="42.82322" lon="-0.50744">
        <ele>2051.95</ele>
        <time>2019-03-23T10:32:41Z</time>
      </trkpt>
      <trkpt lat="42.82329" lon="-0.50766">
        <ele>2057.89</ele>
        <time>2019-03-23T10:33:26Z</time>
      </trkpt>
      <trkpt lat="42.82335" lon="-0.5079">
        <ele>2060.55</ele>
        <time>2019-03-23T10:33:57Z</time>
      </trkpt>
      <trkpt lat="42.82339" lon="-0.50814">
        <ele>2068.55</ele>
        <time>2019-03-23T10:34:35Z</time>
      </trkpt>
      <trkpt lat="42.82353" lon="-0.5083">
        <ele>2071.24</ele>
        <time>2019-03-23T10:35:09Z</time>
      </trkpt>
      <trkpt lat="42.82367" lon="-0.50847">
        <ele>2076.55</ele>
        <time>2019-03-23T10:35:56Z</time>
      </trkpt>
      <trkpt lat="42.82374" lon="-0.50871">
        <ele>2084.24</ele>
        <time>2019-03-23T10:36:36Z</time>
      </trkpt>
      <trkpt lat="42.82388" lon="-0.50886">
        <ele>2089.11</ele>
        <time>2019-03-23T10:37:21Z</time>
      </trkpt>
      <trkpt lat="42.82406" lon="-0.50892">
        <ele>2090.89</ele>
        <time>2019-03-23T10:38:05Z</time>
      </trkpt>
      <trkpt lat="42.82398" lon="-0.50915">
        <ele>2100.28</ele>
        <time>2019-03-23T10:38:39Z</time>
      </trkpt>
      <trkpt lat="42.82388" lon="-0.50936">
        <ele>2103.89</ele>
        <time>2019-03-23T10:39:20Z</time>
      </trkpt>
      <trkpt lat="42.82402" lon="-0.50956">
        <ele>2108.16</ele>
        <time>2019-03-23T10:40:38Z</time>
      </trkpt>
      <trkpt lat="42.82394" lon="-0.50979">
        <ele>2117.13</ele>
        <time>2019-03-23T10:41:21Z</time>
      </trkpt>
      <trkpt lat="42.82386" lon="-0.51001">
        <ele>2122.03</ele>
        <time>2019-03-23T10:42:00Z</time>
      </trkpt>
      <trkpt lat="42.82378" lon="-0.51023">
        <ele>2127.31</ele>
        <time>2019-03-23T10:42:32Z</time>
      </trkpt>
      <trkpt lat="42.82373" lon="-0.51047">
        <ele>2132.14</ele>
        <time>2019-03-23T10:43:03Z</time>
      </trkpt>
      <trkpt lat="42.82375" lon="-0.51072">
        <ele>2136.01</ele>
        <time>2019-03-23T10:44:03Z</time>
      </trkpt>
      <trkpt lat="42.82376" lon="-0.51096">
        <ele>2143.02</ele>
        <time>2019-03-23T10:44:53Z</time>
      </trkpt>
      <trkpt lat="42.82377" lon="-0.51121">
        <ele>2147.97</ele>
        <time>2019-03-23T10:45:41Z</time>
      </trkpt>
      <trkpt lat="42.82389" lon="-0.5114">
        <ele>2151.23</ele>
        <time>2019-03-23T11:01:51Z</time>
      </trkpt>
      <trkpt lat="42.82384" lon="-0.51166">
        <ele>2146.98</ele>
        <time>2019-03-23T11:02:57Z</time>
      </trkpt>
      <trkpt lat="42.82399" lon="-0.51184">
        <ele>2142.28</ele>
        <time>2019-03-23T11:03:07Z</time>
      </trkpt>
      <trkpt lat="42.82417" lon="-0.51191">
        <ele>2136.79</ele>
        <time>2019-03-23T11:03:14Z</time>
      </trkpt>
      <trkpt lat="42.82426" lon="-0.51212">
        <ele>2125.22</ele>
        <time>2019-03-23T11:04:53Z</time>
      </trkpt>
      <trkpt lat="42.82445" lon="-0.51216">
        <ele>2122.62</ele>
        <time>2019-03-23T11:04:57Z</time>
      </trkpt>
      <trkpt lat="42.82441" lon="-0.51243">
        <ele>2108.57</ele>
        <time>2019-03-23T11:05:05Z</time>
      </trkpt>
      <trkpt lat="42.82434" lon="-0.51268">
        <ele>2103.22</ele>
        <time>2019-03-23T11:05:09Z</time>
      </trkpt>
      <trkpt lat="42.82432" lon="-0.51296">
        <ele>2099.12</ele>
        <time>2019-03-23T11:05:13Z</time>
      </trkpt>
      <trkpt lat="42.82451" lon="-0.51313">
        <ele>2087.24</ele>
        <time>2019-03-23T11:05:18Z</time>
      </trkpt>
      <trkpt lat="42.82467" lon="-0.51335">
        <ele>2083.74</ele>
        <time>2019-03-23T11:05:22Z</time>
      </trkpt>
      <trkpt lat="42.82481" lon="-0.51358">
        <ele>2078.83</ele>
        <time>2019-03-23T11:05:26Z</time>
      </trkpt>
      <trkpt lat="42.825" lon="-0.51375">
        <ele>2072.18</ele>
        <time>2019-03-23T11:05:30Z</time>
      </trkpt>
      <trkpt lat="42.82515" lon="-0.51389">
        <ele>2060.32</ele>
        <time>2019-03-23T11:05:38Z</time>
      </trkpt>
      <trkpt lat="42.82531" lon="-0.51408">
        <ele>2060.21</ele>
        <time>2019-03-23T11:06:23Z</time>
      </trkpt>
      <trkpt lat="42.82538" lon="-0.51432">
        <ele>2057.21</ele>
        <time>2019-03-23T11:06:39Z</time>
      </trkpt>
      <trkpt lat="42.82551" lon="-0.51452">
        <ele>2048</ele>
        <time>2019-03-23T11:06:47Z</time>
      </trkpt>
      <trkpt lat="42.82568" lon="-0.51436">
        <ele>2038.67</ele>
        <time>2019-03-23T11:06:52Z</time>
      </trkpt>
      <trkpt lat="42.82586" lon="-0.51436">
        <ele>2032.01</ele>
        <time>2019-03-23T11:06:56Z</time>
      </trkpt>
      <trkpt lat="42.82597" lon="-0.51412">
        <ele>2028.6</ele>
        <time>2019-03-23T11:07:51Z</time>
      </trkpt>
      <trkpt lat="42.82616" lon="-0.51408">
        <ele>2026.47</ele>
        <time>2019-03-23T11:07:55Z</time>
      </trkpt>
      <trkpt lat="42.82636" lon="-0.51413">
        <ele>2022.55</ele>
        <time>2019-03-23T11:08:00Z</time>
      </trkpt>
      <trkpt lat="42.82656" lon="-0.51409">
        <ele>2017.12</ele>
        <time>2019-03-23T11:08:10Z</time>
      </trkpt>
      <trkpt lat="42.82675" lon="-0.51416">
        <ele>2013.79</ele>
        <time>2019-03-23T11:08:17Z</time>
      </trkpt>
      <trkpt lat="42.82678" lon="-0.51446">
        <ele>2008.64</ele>
        <time>2019-03-23T11:08:24Z</time>
      </trkpt>
      <trkpt lat="42.82691" lon="-0.51469">
        <ele>2002.44</ele>
        <time>2019-03-23T11:08:28Z</time>
      </trkpt>
      <trkpt lat="42.827" lon="-0.51498">
        <ele>1993.86</ele>
        <time>2019-03-23T11:08:32Z</time>
      </trkpt>
      <trkpt lat="42.82711" lon="-0.51527">
        <ele>1991.03</ele>
        <time>2019-03-23T11:10:02Z</time>
      </trkpt>
      <trkpt lat="42.82713" lon="-0.51562">
        <ele>1988.11</ele>
        <time>2019-03-23T11:10:05Z</time>
      </trkpt>
      <trkpt lat="42.82716" lon="-0.51587">
        <ele>1983.25</ele>
        <time>2019-03-23T11:10:07Z</time>
      </trkpt>
      <trkpt lat="42.82728" lon="-0.51619">
        <ele>1971.18</ele>
        <time>2019-03-23T11:10:10Z</time>
      </trkpt>
      <trkpt lat="42.82739" lon="-0.51642">
        <ele>1961.13</ele>
        <time>2019-03-23T11:10:12Z</time>
      </trkpt>
      <trkpt lat="42.82741" lon="-0.51667">
        <ele>1948.25</ele>
        <time>2019-03-23T11:10:16Z</time>
      </trkpt>
      <trkpt lat="42.82761" lon="-0.51673">
        <ele>1944.17</ele>
        <time>2019-03-23T11:11:40Z</time>
      </trkpt>
      <trkpt lat="42.82781" lon="-0.51688">
        <ele>1940.9</ele>
        <time>2019-03-23T11:11:44Z</time>
      </trkpt>
      <trkpt lat="42.82794" lon="-0.51711">
        <ele>1937.27</ele>
        <time>2019-03-23T11:11:47Z</time>
      </trkpt>
      <trkpt lat="42.82806" lon="-0.51729">
        <ele>1934.77</ele>
        <time>2019-03-23T11:11:49Z</time>
      </trkpt>
      <trkpt lat="42.82819" lon="-0.51751">
        <ele>1926.99</ele>
        <time>2019-03-23T11:11:51Z</time>
      </trkpt>
      <trkpt lat="42.82834" lon="-0.51774">
        <ele>1923.26</ele>
        <time>2019-03-23T11:11:53Z</time>
      </trkpt>
      <trkpt lat="42.82841" lon="-0.51805">
        <ele>1913.18</ele>
        <time>2019-03-23T11:11:55Z</time>
      </trkpt>
      <trkpt lat="42.82854" lon="-0.51831">
        <ele>1904.69</ele>
        <time>2019-03-23T11:11:57Z</time>
      </trkpt>
      <trkpt lat="42.82876" lon="-0.51838">
        <ele>1889.9</ele>
        <time>2019-03-23T11:12:00Z</time>
      </trkpt>
      <trkpt lat="42.82887" lon="-0.51865">
        <ele>1873.76</ele>
        <time>2019-03-23T11:12:05Z</time>
      </trkpt>
      <trkpt lat="42.82898" lon="-0.51894">
        <ele>1868.34</ele>
        <time>2019-03-23T11:12:09Z</time>
      </trkpt>
      <trkpt lat="42.82905" lon="-0.51917">
        <ele>1858.31</ele>
        <time>2019-03-23T11:12:13Z</time>
      </trkpt>
      <trkpt lat="42.82905" lon="-0.51945">
        <ele>1848.33</ele>
        <time>2019-03-23T11:12:18Z</time>
      </trkpt>
      <trkpt lat="42.82912" lon="-0.51969">
        <ele>1841.7</ele>
        <time>2019-03-23T11:12:21Z</time>
      </trkpt>
      <trkpt lat="42.82932" lon="-0.51993">
        <ele>1832.64</ele>
        <time>2019-03-23T11:12:24Z</time>
      </trkpt>
      <trkpt lat="42.82931" lon="-0.52026">
        <ele>1823.08</ele>
        <time>2019-03-23T11:12:27Z</time>
      </trkpt>
      <trkpt lat="42.82935" lon="-0.52053">
        <ele>1809.28</ele>
        <time>2019-03-23T11:14:56Z</time>
      </trkpt>
      <trkpt lat="42.82939" lon="-0.52083">
        <ele>1799.97</ele>
        <time>2019-03-23T11:15:01Z</time>
      </trkpt>
      <trkpt lat="42.82936" lon="-0.52111">
        <ele>1793.11</ele>
        <time>2019-03-23T11:15:05Z</time>
      </trkpt>
      <trkpt lat="42.82941" lon="-0.52139">
        <ele>1781.2</ele>
        <time>2019-03-23T11:15:10Z</time>
      </trkpt>
      <trkpt lat="42.82924" lon="-0.52149">
        <ele>1767.11</ele>
        <time>2019-03-23T11:15:31Z</time>
      </trkpt>
      <trkpt lat="42.82905" lon="-0.52171">
        <ele>1765.81</ele>
        <time>2019-03-23T11:15:35Z</time>
      </trkpt>
      <trkpt lat="42.82902" lon="-0.52205">
        <ele>1761.66</ele>
        <time>2019-03-23T11:15:38Z</time>
      </trkpt>
      <trkpt lat="42.82906" lon="-0.52238">
        <ele>1755.79</ele>
        <time>2019-03-23T11:15:40Z</time>
      </trkpt>
      <trkpt lat="42.82905" lon="-0.52269">
        <ele>1746.81</ele>
        <time>2019-03-23T11:15:42Z</time>
      </trkpt>
      <trkpt lat="42.82906" lon="-0.52304">
        <ele>1735.54</ele>
        <time>2019-03-23T11:15:45Z</time>
      </trkpt>
      <trkpt lat="42.82903" lon="-0.52332">
        <ele>1725.9</ele>
        <time>2019-03-23T11:15:49Z</time>
      </trkpt>
      <trkpt lat="42.82912" lon="-0.52355">
        <ele>1718.63</ele>
        <time>2019-03-23T11:15:52Z</time>
      </trkpt>
      <trkpt lat="42.82922" lon="-0.52382">
        <ele>1710.84</ele>
        <time>2019-03-23T11:15:55Z</time>
      </trkpt>
      <trkpt lat="42.8293" lon="-0.52405">
        <ele>1704.41</ele>
        <time>2019-03-23T11:15:57Z</time>
      </trkpt>
      <trkpt lat="42.82934" lon="-0.52436">
        <ele>1697.3</ele>
        <time>2019-03-23T11:15:59Z</time>
      </trkpt>
      <trkpt lat="42.82943" lon="-0.52457">
        <ele>1688.38</ele>
        <time>2019-03-23T11:17:09Z</time>
      </trkpt>
      <trkpt lat="42.82924" lon="-0.5247">
        <ele>1683.55</ele>
        <time>2019-03-23T11:20:39Z</time>
      </trkpt>
      <trkpt lat="42.82921" lon="-0.52495">
        <ele>1680.65</ele>
        <time>2019-03-23T11:20:42Z</time>
      </trkpt>
      <trkpt lat="42.82915" lon="-0.52525">
        <ele>1675.86</ele>
        <time>2019-03-23T11:20:46Z</time>
      </trkpt>
      <trkpt lat="42.82915" lon="-0.52551">
        <ele>1669.41</ele>
        <time>2019-03-23T11:20:50Z</time>
      </trkpt>
      <trkpt lat="42.8292" lon="-0.52579">
        <ele>1658.37</ele>
        <time>2019-03-23T11:20:54Z</time>
      </trkpt>
      <trkpt lat="42.82925" lon="-0.5261">
        <ele>1649.02</ele>
        <time>2019-03-23T11:20:58Z</time>
      </trkpt>
      <trkpt lat="42.82937" lon="-0.52637">
        <ele>1643.69</ele>
        <time>2019-03-23T11:21:01Z</time>
      </trkpt>
      <trkpt lat="42.82953" lon="-0.52658">
        <ele>1636.08</ele>
        <time>2019-03-23T11:21:04Z</time>
      </trkpt>
      <trkpt lat="42.82971" lon="-0.52668">
        <ele>1626.06</ele>
        <time>2019-03-23T11:21:07Z</time>
      </trkpt>
      <trkpt lat="42.82982" lon="-0.52691">
        <ele>1621.61</ele>
        <time>2019-03-23T11:21:10Z</time>
      </trkpt>
      <trkpt lat="42.82998" lon="-0.52705">
        <ele>1610.7</ele>
        <time>2019-03-23T11:22:36Z</time>
      </trkpt>
      <trkpt lat="42.83016" lon="-0.52703">
        <ele>1608.12</ele>
        <time>2019-03-23T11:22:40Z</time>
      </trkpt>
      <trkpt lat="42.83038" lon="-0.527">
        <ele>1603.78</ele>
        <time>2019-03-23T11:22:44Z</time>
      </trkpt>
      <trkpt lat="42.83058" lon="-0.52695">
        <ele>1600.23</ele>
        <time>2019-03-23T11:22:49Z</time>
      </trkpt>
      <trkpt lat="42.83074" lon="-0.52715">
        <ele>1594.55</ele>
        <time>2019-03-23T11:22:55Z</time>
      </trkpt>
      <trkpt lat="42.83094" lon="-0.52727">
        <ele>1589.96</ele>
        <time>2019-03-23T11:22:58Z</time>
      </trkpt>
      <trkpt lat="42.83113" lon="-0.52735">
        <ele>1583.24</ele>
        <time>2019-03-23T11:23:02Z</time>
      </trkpt>
      <trkpt lat="42.83121" lon="-0.52758">
        <ele>1570.52</ele>
        <time>2019-03-23T11:23:09Z</time>
      </trkpt>
      <trkpt lat="42.83114" lon="-0.52783">
        <ele>1549.44</ele>
        <time>2019-03-23T11:23:20Z</time>
      </trkpt>
      <trkpt lat="42.83124" lon="-0.52804">
        <ele>1533.76</ele>
        <time>2019-03-23T11:23:35Z</time>
      </trkpt>
      <trkpt lat="42.83145" lon="-0.52816">
        <ele>1528.33</ele>
        <time>2019-03-23T11:23:47Z</time>
      </trkpt>
      <trkpt lat="42.83161" lon="-0.52832">
        <ele>1524.58</ele>
        <time>2019-03-23T11:23:54Z</time>
      </trkpt>
      <trkpt lat="42.83161" lon="-0.5286">
        <ele>1521.08</ele>
        <time>2019-03-23T11:24:00Z</time>
      </trkpt>
      <trkpt lat="42.8316" lon="-0.52886">
        <ele>1510.94</ele>
        <time>2019-03-23T11:24:09Z</time>
      </trkpt>
      <trkpt lat="42.83142" lon="-0.52878">
        <ele>1499.83</ele>
        <time>2019-03-23T11:24:43Z</time>
      </trkpt>
      <trkpt lat="42.83139" lon="-0.52902">
        <ele>1492.3</ele>
        <time>2019-03-23T11:25:01Z</time>
      </trkpt>
      <trkpt lat="42.83126" lon="-0.52919">
        <ele>1493.8</ele>
        <time>2019-03-23T11:25:16Z</time>
      </trkpt>
      <trkpt lat="42.83108" lon="-0.52928">
        <ele>1505.22</ele>
        <time>2019-03-23T11:25:44Z</time>
      </trkpt>
      <trkpt lat="42.8309" lon="-0.52935">
        <ele>1512.57</ele>
        <time>2019-03-23T11:26:03Z</time>
      </trkpt>
      <trkpt lat="42.83071" lon="-0.52929">
        <ele>1512.32</ele>
        <time>2019-03-23T11:26:13Z</time>
      </trkpt>
      <trkpt lat="42.83052" lon="-0.52932">
        <ele>1521.02</ele>
        <time>2019-03-23T11:26:30Z</time>
      </trkpt>
      <trkpt lat="42.83034" lon="-0.52929">
        <ele>1530.32</ele>
        <time>2019-03-23T11:26:52Z</time>
      </trkpt>
      <trkpt lat="42.83015" lon="-0.52932">
        <ele>1544.12</ele>
        <time>2019-03-23T11:27:34Z</time>
      </trkpt>
      <trkpt lat="42.82998" lon="-0.52946">
        <ele>1540.73</ele>
        <time>2019-03-23T11:28:32Z</time>
      </trkpt>
      <trkpt lat="42.8298" lon="-0.52947">
        <ele>1534.36</ele>
        <time>2019-03-23T11:28:40Z</time>
      </trkpt>
      <trkpt lat="42.82961" lon="-0.52947">
        <ele>1528.62</ele>
        <time>2019-03-23T11:28:47Z</time>
      </trkpt>
      <trkpt lat="42.82942" lon="-0.52949">
        <ele>1520.67</ele>
        <time>2019-03-23T11:28:55Z</time>
      </trkpt>
      <trkpt lat="42.82926" lon="-0.52963">
        <ele>1513.78</ele>
        <time>2019-03-23T11:29:33Z</time>
      </trkpt>
      <trkpt lat="42.82908" lon="-0.52967">
        <ele>1503.64</ele>
        <time>2019-03-23T11:30:32Z</time>
      </trkpt>
      <trkpt lat="42.82886" lon="-0.5299">
        <ele>1501.57</ele>
        <time>2019-03-23T11:30:54Z</time>
      </trkpt>
      <trkpt lat="42.82871" lon="-0.53006">
        <ele>1499.74</ele>
        <time>2019-03-23T11:30:59Z</time>
      </trkpt>
      <trkpt lat="42.82854" lon="-0.53016">
        <ele>1491.54</ele>
        <time>2019-03-23T11:31:20Z</time>
      </trkpt>
      <trkpt lat="42.82838" lon="-0.53031">
        <ele>1488.15</ele>
        <time>2019-03-23T11:31:33Z</time>
      </trkpt>
      <trkpt lat="42.82832" lon="-0.53056">
        <ele>1489.21</ele>
        <time>2019-03-23T11:32:01Z</time>
      </trkpt>
      <trkpt lat="42.82819" lon="-0.53076">
        <ele>1483.15</ele>
        <time>2019-03-23T11:32:35Z</time>
      </trkpt>
      <trkpt lat="42.82801" lon="-0.53082">
        <ele>1479.89</ele>
        <time>2019-03-23T11:32:49Z</time>
      </trkpt>
      <trkpt lat="42.82787" lon="-0.53098">
        <ele>1474.18</ele>
        <time>2019-03-23T11:33:07Z</time>
      </trkpt>
      <trkpt lat="42.8277" lon="-0.53107">
        <ele>1472.25</ele>
        <time>2019-03-23T11:33:32Z</time>
      </trkpt>
      <trkpt lat="42.82753" lon="-0.53122">
        <ele>1468.85</ele>
        <time>2019-03-23T11:33:47Z</time>
      </trkpt>
      <trkpt lat="42.82734" lon="-0.53133">
        <ele>1461.13</ele>
        <time>2019-03-23T11:34:05Z</time>
      </trkpt>
      <trkpt lat="42.82721" lon="-0.53149">
        <ele>1458.94</ele>
        <time>2019-03-23T11:34:21Z</time>
      </trkpt>
      <trkpt lat="42.82704" lon="-0.53161">
        <ele>1457.51</ele>
        <time>2019-03-23T11:34:50Z</time>
      </trkpt>
      <trkpt lat="42.82684" lon="-0.53168">
        <ele>1450.44</ele>
        <time>2019-03-23T11:35:10Z</time>
      </trkpt>
      <trkpt lat="42.82669" lon="-0.53183">
        <ele>1447.63</ele>
        <time>2019-03-23T11:35:21Z</time>
      </trkpt>
      <trkpt lat="42.82651" lon="-0.53191">
        <ele>1445.16</ele>
        <time>2019-03-23T11:35:33Z</time>
      </trkpt>
      <trkpt lat="42.82639" lon="-0.53216">
        <ele>1441.98</ele>
        <time>2019-03-23T11:36:05Z</time>
      </trkpt>
      <trkpt lat="42.82638" lon="-0.53242">
        <ele>1425.01</ele>
        <time>2019-03-23T11:45:25Z</time>
      </trkpt>
      <trkpt lat="42.82612" lon="-0.53242">
        <ele>1437.88</ele>
        <time>2019-03-23T11:47:41Z</time>
      </trkpt>
      <trkpt lat="42.82592" lon="-0.53255">
        <ele>1436.18</ele>
        <time>2019-03-23T11:48:10Z</time>
      </trkpt>
      <trkpt lat="42.82568" lon="-0.53264">
        <ele>1433.2</ele>
        <time>2019-03-23T11:48:42Z</time>
      </trkpt>
      <trkpt lat="42.82549" lon="-0.53266">
        <ele>1431.98</ele>
        <time>2019-03-23T11:49:03Z</time>
      </trkpt>
      <trkpt lat="42.82523" lon="-0.5327">
        <ele>1435.08</ele>
        <time>2019-03-23T11:49:36Z</time>
      </trkpt>
      <trkpt lat="42.82501" lon="-0.53269">
        <ele>1438.61</ele>
        <time>2019-03-23T11:50:10Z</time>
      </trkpt>
      <trkpt lat="42.82482" lon="-0.53272">
        <ele>1440.09</ele>
        <time>2019-03-23T11:50:37Z</time>
      </trkpt>
      <trkpt lat="42.8246" lon="-0.53282">
        <ele>1437.87</ele>
        <time>2019-03-23T11:51:12Z</time>
      </trkpt>
      <trkpt lat="42.82455" lon="-0.53258">
        <ele>1435.99</ele>
        <time>2019-03-23T11:52:32Z</time>
      </trkpt>
      <trkpt lat="42.82462" lon="-0.53229">
        <ele>1438</ele>
        <time>2019-03-23T11:53:09Z</time>
      </trkpt>
      <trkpt lat="42.82449" lon="-0.53252">
        <ele>1441.31</ele>
        <time>2019-03-23T11:55:57Z</time>
      </trkpt>
      <trkpt lat="42.82436" lon="-0.53277">
        <ele>1444.19</ele>
        <time>2019-03-23T11:57:32Z</time>
      </trkpt>
      <trkpt lat="42.82412" lon="-0.53279">
        <ele>1453.35</ele>
        <time>2019-03-23T11:58:02Z</time>
      </trkpt>
      <trkpt lat="42.8239" lon="-0.53282">
        <ele>1461.61</ele>
        <time>2019-03-23T11:58:33Z</time>
      </trkpt>
      <trkpt lat="42.82367" lon="-0.53279">
        <ele>1467.78</ele>
        <time>2019-03-23T11:59:05Z</time>
      </trkpt>
      <trkpt lat="42.82347" lon="-0.53272">
        <ele>1473.01</ele>
        <time>2019-03-23T11:59:40Z</time>
      </trkpt>
      <trkpt lat="42.82326" lon="-0.53263">
        <ele>1473.39</ele>
        <time>2019-03-23T12:00:15Z</time>
      </trkpt>
      <trkpt lat="42.82304" lon="-0.53257">
        <ele>1471.08</ele>
        <time>2019-03-23T12:00:59Z</time>
      </trkpt>
      <trkpt lat="42.82286" lon="-0.5325">
        <ele>1469.06</ele>
        <time>2019-03-23T12:01:22Z</time>
      </trkpt>
      <trkpt lat="42.82266" lon="-0.53235">
        <ele>1467.45</ele>
        <time>2019-03-23T12:01:57Z</time>
      </trkpt>
      <trkpt lat="42.82246" lon="-0.53217">
        <ele>1467.99</ele>
        <time>2019-03-23T12:02:30Z</time>
      </trkpt>
      <trkpt lat="42.82232" lon="-0.53235">
        <ele>1474.66</ele>
        <time>2019-03-23T12:05:48Z</time>
      </trkpt>
      <trkpt lat="42.82237" lon="-0.53206">
        <ele>1483.18</ele>
        <time>2019-03-23T12:29:59Z</time>
      </trkpt>
      <trkpt lat="42.82218" lon="-0.53219">
        <ele>1491.28</ele>
        <time>2019-03-23T12:47:49Z</time>
      </trkpt>
      <trkpt lat="42.82196" lon="-0.53221">
        <ele>1491.94</ele>
        <time>2019-03-23T12:48:22Z</time>
      </trkpt>
      <trkpt lat="42.82173" lon="-0.53214">
        <ele>1493.51</ele>
        <time>2019-03-23T12:49:04Z</time>
      </trkpt>
      <trkpt lat="42.8215" lon="-0.53206">
        <ele>1492.71</ele>
        <time>2019-03-23T12:49:35Z</time>
      </trkpt>
      <trkpt lat="42.82131" lon="-0.53197">
        <ele>1494.67</ele>
        <time>2019-03-23T12:50:05Z</time>
      </trkpt>
      <trkpt lat="42.82111" lon="-0.53205">
        <ele>1495.66</ele>
        <time>2019-03-23T12:50:53Z</time>
      </trkpt>
      <trkpt lat="42.82093" lon="-0.53207">
        <ele>1497.77</ele>
        <time>2019-03-23T12:51:25Z</time>
      </trkpt>
      <trkpt lat="42.8207" lon="-0.53195">
        <ele>1498.76</ele>
        <time>2019-03-23T12:52:08Z</time>
      </trkpt>
      <trkpt lat="42.82047" lon="-0.53187">
        <ele>1510.03</ele>
        <time>2019-03-23T12:52:54Z</time>
      </trkpt>
      <trkpt lat="42.82029" lon="-0.53188">
        <ele>1527.33</ele>
        <time>2019-03-23T12:53:34Z</time>
      </trkpt>
      <trkpt lat="42.82011" lon="-0.53171">
        <ele>1532.11</ele>
        <time>2019-03-23T12:54:11Z</time>
      </trkpt>
      <trkpt lat="42.81995" lon="-0.53158">
        <ele>1542.75</ele>
        <time>2019-03-23T12:54:47Z</time>
      </trkpt>
      <trkpt lat="42.81981" lon="-0.53135">
        <ele>1551.11</ele>
        <time>2019-03-23T12:55:25Z</time>
      </trkpt>
      <trkpt lat="42.81964" lon="-0.53118">
        <ele>1559.46</ele>
        <time>2019-03-23T12:56:00Z</time>
      </trkpt>
      <trkpt lat="42.81943" lon="-0.53116">
        <ele>1563.31</ele>
        <time>2019-03-23T12:56:53Z</time>
      </trkpt>
      <trkpt lat="42.81925" lon="-0.53114">
        <ele>1563.21</ele>
        <time>2019-03-23T12:57:21Z</time>
      </trkpt>
      <trkpt lat="42.81903" lon="-0.53108">
        <ele>1559.36</ele>
        <time>2019-03-23T12:57:51Z</time>
      </trkpt>
      <trkpt lat="42.81882" lon="-0.531">
        <ele>1555.54</ele>
        <time>2019-03-23T12:58:38Z</time>
      </trkpt>
      <trkpt lat="42.8186" lon="-0.53093">
        <ele>1559.75</ele>
        <time>2019-03-23T12:59:31Z</time>
      </trkpt>
      <trkpt lat="42.81859" lon="-0.53066">
        <ele>1572.89</ele>
        <time>2019-03-23T13:00:18Z</time>
      </trkpt>
      <trkpt lat="42.81836" lon="-0.53075">
        <ele>1593.8</ele>
        <time>2019-03-23T13:01:11Z</time>
      </trkpt>
      <trkpt lat="42.81813" lon="-0.53074">
        <ele>1597.33</ele>
        <time>2019-03-23T13:01:54Z</time>
      </trkpt>
      <trkpt lat="42.81791" lon="-0.53078">
        <ele>1594.39</ele>
        <time>2019-03-23T13:02:25Z</time>
      </trkpt>
      <trkpt lat="42.8177" lon="-0.53077">
        <ele>1592.21</ele>
        <time>2019-03-23T13:03:04Z</time>
      </trkpt>
      <trkpt lat="42.81763" lon="-0.53054">
        <ele>1599.18</ele>
        <time>2019-03-23T13:03:41Z</time>
      </trkpt>
      <trkpt lat="42.81744" lon="-0.53052">
        <ele>1605.39</ele>
        <time>2019-03-23T13:04:36Z</time>
      </trkpt>
      <trkpt lat="42.81723" lon="-0.53056">
        <ele>1613.37</ele>
        <time>2019-03-23T13:05:15Z</time>
      </trkpt>
      <trkpt lat="42.81704" lon="-0.53063">
        <ele>1624.17</ele>
        <time>2019-03-23T13:05:51Z</time>
      </trkpt>
      <trkpt lat="42.81683" lon="-0.53063">
        <ele>1629.15</ele>
        <time>2019-03-23T13:06:28Z</time>
      </trkpt>
      <trkpt lat="42.81661" lon="-0.53059">
        <ele>1634.82</ele>
        <time>2019-03-23T13:07:11Z</time>
      </trkpt>
      <trkpt lat="42.8167" lon="-0.53034">
        <ele>1652.29</ele>
        <time>2019-03-23T13:07:59Z</time>
      </trkpt>
      <trkpt lat="42.81647" lon="-0.53031">
        <ele>1659.75</ele>
        <time>2019-03-23T13:08:35Z</time>
      </trkpt>
      <trkpt lat="42.81624" lon="-0.53027">
        <ele>1667.67</ele>
        <time>2019-03-23T13:09:10Z</time>
      </trkpt>
      <trkpt lat="42.81598" lon="-0.53019">
        <ele>1674.18</ele>
        <time>2019-03-23T13:09:47Z</time>
      </trkpt>
      <trkpt lat="42.81587" lon="-0.53039">
        <ele>1677.77</ele>
        <time>2019-03-23T13:10:13Z</time>
      </trkpt>
      <trkpt lat="42.81574" lon="-0.53071">
        <ele>1683.16</ele>
        <time>2019-03-23T13:10:58Z</time>
      </trkpt>
      <trkpt lat="42.81561" lon="-0.53094">
        <ele>1693.76</ele>
        <time>2019-03-23T13:11:45Z</time>
      </trkpt>
      <trkpt lat="42.81555" lon="-0.53067">
        <ele>1705.85</ele>
        <time>2019-03-23T13:12:33Z</time>
      </trkpt>
      <trkpt lat="42.81536" lon="-0.53077">
        <ele>1707.22</ele>
        <time>2019-03-23T13:13:13Z</time>
      </trkpt>
      <trkpt lat="42.81517" lon="-0.53093">
        <ele>1706.73</ele>
        <time>2019-03-23T13:13:54Z</time>
      </trkpt>
      <trkpt lat="42.81496" lon="-0.53095">
        <ele>1710.56</ele>
        <time>2019-03-23T13:14:21Z</time>
      </trkpt>
      <trkpt lat="42.81483" lon="-0.53075">
        <ele>1718.97</ele>
        <time>2019-03-23T13:15:02Z</time>
      </trkpt>
      <trkpt lat="42.81465" lon="-0.53089">
        <ele>1721.14</ele>
        <time>2019-03-23T13:28:25Z</time>
      </trkpt>
      <trkpt lat="42.8145" lon="-0.53105">
        <ele>1723.54</ele>
        <time>2019-03-23T13:32:38Z</time>
      </trkpt>
      <trkpt lat="42.81434" lon="-0.53088">
        <ele>1735.35</ele>
        <time>2019-03-23T13:33:44Z</time>
      </trkpt>
      <trkpt lat="42.81421" lon="-0.53068">
        <ele>1744.91</ele>
        <time>2019-03-23T13:34:41Z</time>
      </trkpt>
      <trkpt lat="42.81424" lon="-0.53042">
        <ele>1754.5</ele>
        <time>2019-03-23T13:35:39Z</time>
      </trkpt>
      <trkpt lat="42.81431" lon="-0.53012">
        <ele>1760.49</ele>
        <time>2019-03-23T13:36:13Z</time>
      </trkpt>
      <trkpt lat="42.81408" lon="-0.53005">
        <ele>1776.87</ele>
        <time>2019-03-23T13:37:47Z</time>
      </trkpt>
      <trkpt lat="42.81386" lon="-0.53013">
        <ele>1783.28</ele>
        <time>2019-03-23T13:38:23Z</time>
      </trkpt>
      <trkpt lat="42.81367" lon="-0.52997">
        <ele>1785.53</ele>
        <time>2019-03-23T13:39:41Z</time>
      </trkpt>
      <trkpt lat="42.81367" lon="-0.52966">
        <ele>1790.73</ele>
        <time>2019-03-23T13:40:19Z</time>
      </trkpt>
      <trkpt lat="42.81372" lon="-0.52938">
        <ele>1800.14</ele>
        <time>2019-03-23T13:41:02Z</time>
      </trkpt>
      <trkpt lat="42.81348" lon="-0.5294">
        <ele>1808.32</ele>
        <time>2019-03-23T13:42:19Z</time>
      </trkpt>
      <trkpt lat="42.81327" lon="-0.52956">
        <ele>1811.85</ele>
        <time>2019-03-23T13:42:52Z</time>
      </trkpt>
      <trkpt lat="42.81312" lon="-0.5298">
        <ele>1814.02</ele>
        <time>2019-03-23T13:43:25Z</time>
      </trkpt>
      <trkpt lat="42.81309" lon="-0.52955">
        <ele>1818.57</ele>
        <time>2019-03-23T13:44:03Z</time>
      </trkpt>
      <trkpt lat="42.81291" lon="-0.52971">
        <ele>1833.39</ele>
        <time>2019-03-23T13:44:51Z</time>
      </trkpt>
      <trkpt lat="42.81278" lon="-0.52989">
        <ele>1841.84</ele>
        <time>2019-03-23T13:46:24Z</time>
      </trkpt>
      <trkpt lat="42.8126" lon="-0.53006">
        <ele>1849.3</ele>
        <time>2019-03-23T13:47:53Z</time>
      </trkpt>
      <trkpt lat="42.81248" lon="-0.5303">
        <ele>1862.05</ele>
        <time>2019-03-23T13:48:34Z</time>
      </trkpt>
      <trkpt lat="42.81228" lon="-0.53039">
        <ele>1874.53</ele>
        <time>2019-03-23T13:49:43Z</time>
      </trkpt>
      <trkpt lat="42.8121" lon="-0.53045">
        <ele>1879.95</ele>
        <time>2019-03-23T13:50:13Z</time>
      </trkpt>
      <trkpt lat="42.81191" lon="-0.53036">
        <ele>1884.02</ele>
        <time>2019-03-23T13:50:42Z</time>
      </trkpt>
      <trkpt lat="42.8117" lon="-0.53027">
        <ele>1891.4</ele>
        <time>2019-03-23T13:51:13Z</time>
      </trkpt>
      <trkpt lat="42.81147" lon="-0.53025">
        <ele>1901.14</ele>
        <time>2019-03-23T13:51:40Z</time>
      </trkpt>
      <trkpt lat="42.81129" lon="-0.53018">
        <ele>1906.91</ele>
        <time>2019-03-23T13:52:02Z</time>
      </trkpt>
      <trkpt lat="42.81112" lon="-0.53009">
        <ele>1907.05</ele>
        <time>2019-03-23T13:53:15Z</time>
      </trkpt>
      <trkpt lat="42.811" lon="-0.5299">
        <ele>1910.7</ele>
        <time>2019-03-23T14:00:56Z</time>
      </trkpt>
      <trkpt lat="42.81084" lon="-0.52966">
        <ele>1915.78</ele>
        <time>2019-03-23T14:01:25Z</time>
      </trkpt>
      <trkpt lat="42.81076" lon="-0.52944">
        <ele>1918.57</ele>
        <time>2019-03-23T14:01:50Z</time>
      </trkpt>
      <trkpt lat="42.81067" lon="-0.52918">
        <ele>1923.51</ele>
        <time>2019-03-23T14:02:24Z</time>
      </trkpt>
      <trkpt lat="42.81082" lon="-0.52894">
        <ele>1925.33</ele>
        <time>2019-03-23T14:02:55Z</time>
      </trkpt>
      <trkpt lat="42.81095" lon="-0.52869">
        <ele>1927.22</ele>
        <time>2019-03-23T14:03:23Z</time>
      </trkpt>
      <trkpt lat="42.81112" lon="-0.52843">
        <ele>1929.62</ele>
        <time>2019-03-23T14:03:59Z</time>
      </trkpt>
      <trkpt lat="42.81125" lon="-0.52826">
        <ele>1932.05</ele>
        <time>2019-03-23T14:04:24Z</time>
      </trkpt>
      <trkpt lat="42.81108" lon="-0.5282">
        <ele>1936.92</ele>
        <time>2019-03-23T14:05:18Z</time>
      </trkpt>
      <trkpt lat="42.81085" lon="-0.52811">
        <ele>1935.83</ele>
        <time>2019-03-23T14:05:58Z</time>
      </trkpt>
      <trkpt lat="42.81069" lon="-0.5279">
        <ele>1936.02</ele>
        <time>2019-03-23T14:06:36Z</time>
      </trkpt>
      <trkpt lat="42.81079" lon="-0.5277">
        <ele>1939.97</ele>
        <time>2019-03-23T14:07:13Z</time>
      </trkpt>
      <trkpt lat="42.81101" lon="-0.52762">
        <ele>1944.44</ele>
        <time>2019-03-23T14:07:36Z</time>
      </trkpt>
      <trkpt lat="42.8112" lon="-0.5275">
        <ele>1944.94</ele>
        <time>2019-03-23T14:08:39Z</time>
      </trkpt>
      <trkpt lat="42.81138" lon="-0.52742">
        <ele>1954.77</ele>
        <time>2019-03-23T14:10:23Z</time>
      </trkpt>
      <trkpt lat="42.81164" lon="-0.52737">
        <ele>1964.12</ele>
        <time>2019-03-23T14:10:59Z</time>
      </trkpt>
      <trkpt lat="42.81183" lon="-0.52736">
        <ele>1965.51</ele>
        <time>2019-03-23T14:11:27Z</time>
      </trkpt>
      <trkpt lat="42.81186" lon="-0.52702">
        <ele>1974.8</ele>
        <time>2019-03-23T14:12:49Z</time>
      </trkpt>
      <trkpt lat="42.81206" lon="-0.52696">
        <ele>1977.84</ele>
        <time>2019-03-23T14:13:19Z</time>
      </trkpt>
      <trkpt lat="42.81195" lon="-0.52676">
        <ele>1981.02</ele>
        <time>2019-03-23T14:14:02Z</time>
      </trkpt>
      <trkpt lat="42.812" lon="-0.52652">
        <ele>1988.74</ele>
        <time>2019-03-23T14:15:06Z</time>
      </trkpt>
      <trkpt lat="42.81195" lon="-0.52628">
        <ele>1993</ele>
        <time>2019-03-23T14:16:53Z</time>
      </trkpt>
      <trkpt lat="42.81194" lon="-0.52602">
        <ele>1996.44</ele>
        <time>2019-03-23T14:18:09Z</time>
      </trkpt>
      <trkpt lat="42.81213" lon="-0.52595">
        <ele>2009.07</ele>
        <time>2019-03-23T14:21:43Z</time>
      </trkpt>
      <trkpt lat="42.8121" lon="-0.5257">
        <ele>2042.52</ele>
        <time>2019-03-23T14:42:14Z</time>
      </trkpt>
      <trkpt lat="42.81218" lon="-0.52548">
        <ele>2043.48</ele>
        <time>2019-03-23T14:42:20Z</time>
      </trkpt>
      <trkpt lat="42.81227" lon="-0.52525">
        <ele>2041.47</ele>
        <time>2019-03-23T14:42:27Z</time>
      </trkpt>
      <trkpt lat="42.81229" lon="-0.52498">
        <ele>2039.57</ele>
        <time>2019-03-23T14:42:32Z</time>
      </trkpt>
      <trkpt lat="42.81224" lon="-0.52473">
        <ele>2038.36</ele>
        <time>2019-03-23T14:42:43Z</time>
      </trkpt>
      <trkpt lat="42.81205" lon="-0.52457">
        <ele>2042.86</ele>
        <time>2019-03-23T14:47:52Z</time>
      </trkpt>
      <trkpt lat="42.81209" lon="-0.52428">
        <ele>2040.24</ele>
        <time>2019-03-23T14:47:56Z</time>
      </trkpt>
      <trkpt lat="42.81214" lon="-0.52399">
        <ele>2033.56</ele>
        <time>2019-03-23T14:47:59Z</time>
      </trkpt>
      <trkpt lat="42.81211" lon="-0.52371">
        <ele>2028.26</ele>
        <time>2019-03-23T14:48:02Z</time>
      </trkpt>
      <trkpt lat="42.81204" lon="-0.52346">
        <ele>2022.29</ele>
        <time>2019-03-23T14:48:05Z</time>
      </trkpt>
      <trkpt lat="42.81209" lon="-0.52321">
        <ele>2018.75</ele>
        <time>2019-03-23T14:48:08Z</time>
      </trkpt>
      <trkpt lat="42.81219" lon="-0.52301">
        <ele>2014.18</ele>
        <time>2019-03-23T14:48:13Z</time>
      </trkpt>
      <trkpt lat="42.81221" lon="-0.52273">
        <ele>2009.17</ele>
        <time>2019-03-23T14:48:19Z</time>
      </trkpt>
      <trkpt lat="42.81205" lon="-0.52259">
        <ele>2004.45</ele>
        <time>2019-03-23T14:48:23Z</time>
      </trkpt>
      <trkpt lat="42.81184" lon="-0.52249">
        <ele>1998.89</ele>
        <time>2019-03-23T14:48:27Z</time>
      </trkpt>
      <trkpt lat="42.81169" lon="-0.52233">
        <ele>1992.93</ele>
        <time>2019-03-23T14:48:30Z</time>
      </trkpt>
      <trkpt lat="42.81161" lon="-0.52204">
        <ele>1987.09</ele>
        <time>2019-03-23T14:48:33Z</time>
      </trkpt>
      <trkpt lat="42.81157" lon="-0.52177">
        <ele>1984.67</ele>
        <time>2019-03-23T14:48:36Z</time>
      </trkpt>
      <trkpt lat="42.81154" lon="-0.52149">
        <ele>1981.49</ele>
        <time>2019-03-23T14:48:40Z</time>
      </trkpt>
      <trkpt lat="42.81157" lon="-0.5212">
        <ele>1977.88</ele>
        <time>2019-03-23T14:48:46Z</time>
      </trkpt>
      <trkpt lat="42.81153" lon="-0.52091">
        <ele>1976.59</ele>
        <time>2019-03-23T14:48:52Z</time>
      </trkpt>
      <trkpt lat="42.81152" lon="-0.52065">
        <ele>1973.66</ele>
        <time>2019-03-23T14:48:57Z</time>
      </trkpt>
      <trkpt lat="42.81163" lon="-0.52045">
        <ele>1969.74</ele>
        <time>2019-03-23T14:49:01Z</time>
      </trkpt>
      <trkpt lat="42.81182" lon="-0.52045">
        <ele>1961.68</ele>
        <time>2019-03-23T14:49:07Z</time>
      </trkpt>
      <trkpt lat="42.81185" lon="-0.52019">
        <ele>1953.39</ele>
        <time>2019-03-23T14:49:19Z</time>
      </trkpt>
      <trkpt lat="42.8118" lon="-0.51995">
        <ele>1952.71</ele>
        <time>2019-03-23T14:49:56Z</time>
      </trkpt>
      <trkpt lat="42.81179" lon="-0.5197">
        <ele>1946.11</ele>
        <time>2019-03-23T14:50:06Z</time>
      </trkpt>
      <trkpt lat="42.81181" lon="-0.51943">
        <ele>1939.31</ele>
        <time>2019-03-23T14:50:12Z</time>
      </trkpt>
      <trkpt lat="42.81167" lon="-0.51925">
        <ele>1919.99</ele>
        <time>2019-03-23T14:52:49Z</time>
      </trkpt>
      <trkpt lat="42.8116" lon="-0.51903">
        <ele>1910.64</ele>
        <time>2019-03-23T14:53:05Z</time>
      </trkpt>
      <trkpt lat="42.81146" lon="-0.51882">
        <ele>1903.87</ele>
        <time>2019-03-23T14:53:28Z</time>
      </trkpt>
      <trkpt lat="42.81124" lon="-0.51871">
        <ele>1886.03</ele>
        <time>2019-03-23T14:55:26Z</time>
      </trkpt>
      <trkpt lat="42.81105" lon="-0.51871">
        <ele>1880</ele>
        <time>2019-03-23T14:55:29Z</time>
      </trkpt>
      <trkpt lat="42.81081" lon="-0.51871">
        <ele>1871.93</ele>
        <time>2019-03-23T14:55:32Z</time>
      </trkpt>
      <trkpt lat="42.81054" lon="-0.51875">
        <ele>1864.98</ele>
        <time>2019-03-23T14:55:35Z</time>
      </trkpt>
      <trkpt lat="42.81032" lon="-0.51874">
        <ele>1861.81</ele>
        <time>2019-03-23T14:55:37Z</time>
      </trkpt>
      <trkpt lat="42.81006" lon="-0.51869">
        <ele>1858.21</ele>
        <time>2019-03-23T14:55:39Z</time>
      </trkpt>
      <trkpt lat="42.80981" lon="-0.51865">
        <ele>1854.06</ele>
        <time>2019-03-23T14:55:41Z</time>
      </trkpt>
      <trkpt lat="42.80963" lon="-0.51856">
        <ele>1847.25</ele>
        <time>2019-03-23T14:55:43Z</time>
      </trkpt>
      <trkpt lat="42.80942" lon="-0.51843">
        <ele>1841.65</ele>
        <time>2019-03-23T14:55:46Z</time>
      </trkpt>
      <trkpt lat="42.80929" lon="-0.51823">
        <ele>1838.27</ele>
        <time>2019-03-23T14:55:50Z</time>
      </trkpt>
      <trkpt lat="42.80925" lon="-0.51792">
        <ele>1833.27</ele>
        <time>2019-03-23T14:57:05Z</time>
      </trkpt>
      <trkpt lat="42.80921" lon="-0.51768">
        <ele>1831.24</ele>
        <time>2019-03-23T14:57:07Z</time>
      </trkpt>
      <trkpt lat="42.80914" lon="-0.51735">
        <ele>1825.37</ele>
        <time>2019-03-23T14:57:10Z</time>
      </trkpt>
      <trkpt lat="42.809" lon="-0.51712">
        <ele>1815.58</ele>
        <time>2019-03-23T14:57:13Z</time>
      </trkpt>
      <trkpt lat="42.80884" lon="-0.51725">
        <ele>1809.23</ele>
        <time>2019-03-23T14:57:16Z</time>
      </trkpt>
      <trkpt lat="42.80868" lon="-0.5174">
        <ele>1804.46</ele>
        <time>2019-03-23T14:57:19Z</time>
      </trkpt>
      <trkpt lat="42.80846" lon="-0.51756">
        <ele>1798.54</ele>
        <time>2019-03-23T14:57:23Z</time>
      </trkpt>
      <trkpt lat="42.80826" lon="-0.51766">
        <ele>1793.3</ele>
        <time>2019-03-23T14:57:26Z</time>
      </trkpt>
      <trkpt lat="42.80804" lon="-0.51779">
        <ele>1789.22</ele>
        <time>2019-03-23T14:57:29Z</time>
      </trkpt>
      <trkpt lat="42.80787" lon="-0.51799">
        <ele>1784.47</ele>
        <time>2019-03-23T14:57:32Z</time>
      </trkpt>
      <trkpt lat="42.80773" lon="-0.51814">
        <ele>1780.71</ele>
        <time>2019-03-23T14:57:35Z</time>
      </trkpt>
      <trkpt lat="42.80756" lon="-0.51828">
        <ele>1776.39</ele>
        <time>2019-03-23T14:57:38Z</time>
      </trkpt>
      <trkpt lat="42.80732" lon="-0.51827">
        <ele>1771.2</ele>
        <time>2019-03-23T14:57:41Z</time>
      </trkpt>
      <trkpt lat="42.80712" lon="-0.51831">
        <ele>1765.91</ele>
        <time>2019-03-23T14:57:44Z</time>
      </trkpt>
      <trkpt lat="42.80693" lon="-0.5183">
        <ele>1760.23</ele>
        <time>2019-03-23T14:57:48Z</time>
      </trkpt>
      <trkpt lat="42.80675" lon="-0.51841">
        <ele>1754.46</ele>
        <time>2019-03-23T14:57:53Z</time>
      </trkpt>
      <trkpt lat="42.80659" lon="-0.51855">
        <ele>1749.68</ele>
        <time>2019-03-23T14:57:59Z</time>
      </trkpt>
      <trkpt lat="42.80646" lon="-0.51874">
        <ele>1745.54</ele>
        <time>2019-03-23T14:58:04Z</time>
      </trkpt>
      <trkpt lat="42.80631" lon="-0.51891">
        <ele>1742.35</ele>
        <time>2019-03-23T14:58:09Z</time>
      </trkpt>
      <trkpt lat="42.80613" lon="-0.51905">
        <ele>1740.47</ele>
        <time>2019-03-23T14:58:13Z</time>
      </trkpt>
      <trkpt lat="42.80595" lon="-0.51919">
        <ele>1738.23</ele>
        <time>2019-03-23T14:58:18Z</time>
      </trkpt>
      <trkpt lat="42.8058" lon="-0.51935">
        <ele>1736.06</ele>
        <time>2019-03-23T14:58:22Z</time>
      </trkpt>
      <trkpt lat="42.80566" lon="-0.51952">
        <ele>1732.59</ele>
        <time>2019-03-23T14:58:27Z</time>
      </trkpt>
      <trkpt lat="42.80542" lon="-0.5196">
        <ele>1728.63</ele>
        <time>2019-03-23T14:59:14Z</time>
      </trkpt>
      <trkpt lat="42.8053" lon="-0.51981">
        <ele>1725.56</ele>
        <time>2019-03-23T14:59:27Z</time>
      </trkpt>
      <trkpt lat="42.80518" lon="-0.51999">
        <ele>1723.62</ele>
        <time>2019-03-23T14:59:33Z</time>
      </trkpt>
      <trkpt lat="42.80503" lon="-0.52019">
        <ele>1722.12</ele>
        <time>2019-03-23T14:59:38Z</time>
      </trkpt>
      <trkpt lat="42.80489" lon="-0.5204">
        <ele>1719.25</ele>
        <time>2019-03-23T14:59:43Z</time>
      </trkpt>
      <trkpt lat="42.80494" lon="-0.52013">
        <ele>1713.77</ele>
        <time>2019-03-23T14:59:47Z</time>
      </trkpt>
      <trkpt lat="42.80505" lon="-0.51988">
        <ele>1708.77</ele>
        <time>2019-03-23T14:59:52Z</time>
      </trkpt>
      <trkpt lat="42.80517" lon="-0.5197">
        <ele>1705.83</ele>
        <time>2019-03-23T14:59:59Z</time>
      </trkpt>
      <trkpt lat="42.80529" lon="-0.51946">
        <ele>1704.03</ele>
        <time>2019-03-23T15:00:05Z</time>
      </trkpt>
      <trkpt lat="42.80537" lon="-0.51922">
        <ele>1701.08</ele>
        <time>2019-03-23T15:00:12Z</time>
      </trkpt>
      <trkpt lat="42.80547" lon="-0.51899">
        <ele>1699.85</ele>
        <time>2019-03-23T15:00:22Z</time>
      </trkpt>
      <trkpt lat="42.80556" lon="-0.51878">
        <ele>1698.81</ele>
        <time>2019-03-23T15:00:31Z</time>
      </trkpt>
      <trkpt lat="42.8057" lon="-0.51857">
        <ele>1698.44</ele>
        <time>2019-03-23T15:00:38Z</time>
      </trkpt>
      <trkpt lat="42.80586" lon="-0.51843">
        <ele>1695.63</ele>
        <time>2019-03-23T15:00:45Z</time>
      </trkpt>
      <trkpt lat="42.806" lon="-0.51825">
        <ele>1694.17</ele>
        <time>2019-03-23T15:00:53Z</time>
      </trkpt>
      <trkpt lat="42.80609" lon="-0.51802">
        <ele>1693.43</ele>
        <time>2019-03-23T15:01:01Z</time>
      </trkpt>
      <trkpt lat="42.80619" lon="-0.51779">
        <ele>1692.38</ele>
        <time>2019-03-23T15:01:08Z</time>
      </trkpt>
      <trkpt lat="42.80631" lon="-0.51759">
        <ele>1689.32</ele>
        <time>2019-03-23T15:01:16Z</time>
      </trkpt>
      <trkpt lat="42.80646" lon="-0.51741">
        <ele>1687.19</ele>
        <time>2019-03-23T15:01:23Z</time>
      </trkpt>
      <trkpt lat="42.80663" lon="-0.51728">
        <ele>1685.02</ele>
        <time>2019-03-23T15:01:29Z</time>
      </trkpt>
      <trkpt lat="42.8068" lon="-0.51713">
        <ele>1683.4</ele>
        <time>2019-03-23T15:01:35Z</time>
      </trkpt>
      <trkpt lat="42.80695" lon="-0.51696">
        <ele>1679.81</ele>
        <time>2019-03-23T15:01:43Z</time>
      </trkpt>
      <trkpt lat="42.80711" lon="-0.51678">
        <ele>1679.02</ele>
        <time>2019-03-23T15:01:51Z</time>
      </trkpt>
      <trkpt lat="42.80727" lon="-0.51665">
        <ele>1678.82</ele>
        <time>2019-03-23T15:01:58Z</time>
      </trkpt>
      <trkpt lat="42.80739" lon="-0.51645">
        <ele>1678.92</ele>
        <time>2019-03-23T15:02:04Z</time>
      </trkpt>
      <trkpt lat="42.80747" lon="-0.51623">
        <ele>1681.29</ele>
        <time>2019-03-23T15:02:11Z</time>
      </trkpt>
      <trkpt lat="42.80762" lon="-0.51607">
        <ele>1680.49</ele>
        <time>2019-03-23T15:02:20Z</time>
      </trkpt>
      <trkpt lat="42.80779" lon="-0.51593">
        <ele>1675.84</ele>
        <time>2019-03-23T15:02:33Z</time>
      </trkpt>
      <trkpt lat="42.80784" lon="-0.51568">
        <ele>1674.55</ele>
        <time>2019-03-23T15:02:42Z</time>
      </trkpt>
      <trkpt lat="42.80795" lon="-0.51545">
        <ele>1673.14</ele>
        <time>2019-03-23T15:02:49Z</time>
      </trkpt>
      <trkpt lat="42.80808" lon="-0.51526">
        <ele>1671.61</ele>
        <time>2019-03-23T15:02:54Z</time>
      </trkpt>
      <trkpt lat="42.80821" lon="-0.51506">
        <ele>1669.96</ele>
        <time>2019-03-23T15:02:59Z</time>
      </trkpt>
      <trkpt lat="42.80841" lon="-0.5148">
        <ele>1665.57</ele>
        <time>2019-03-23T15:03:28Z</time>
      </trkpt>
      <trkpt lat="42.8086" lon="-0.51485">
        <ele>1664.28</ele>
        <time>2019-03-23T15:03:49Z</time>
      </trkpt>
      <trkpt lat="42.80875" lon="-0.51468">
        <ele>1664.39</ele>
        <time>2019-03-23T15:04:04Z</time>
      </trkpt>
      <trkpt lat="42.80874" lon="-0.5144">
        <ele>1664.45</ele>
        <time>2019-03-23T15:04:11Z</time>
      </trkpt>
      <trkpt lat="42.80876" lon="-0.51415">
        <ele>1661.88</ele>
        <time>2019-03-23T15:04:17Z</time>
      </trkpt>
      <trkpt lat="42.80882" lon="-0.51391">
        <ele>1659.46</ele>
        <time>2019-03-23T15:04:22Z</time>
      </trkpt>
      <trkpt lat="42.80891" lon="-0.51369">
        <ele>1658.06</ele>
        <time>2019-03-23T15:04:30Z</time>
      </trkpt>
      <trkpt lat="42.80904" lon="-0.51351">
        <ele>1656.39</ele>
        <time>2019-03-23T15:04:37Z</time>
      </trkpt>
      <trkpt lat="42.80906" lon="-0.51326">
        <ele>1655.42</ele>
        <time>2019-03-23T15:06:54Z</time>
      </trkpt>
      <trkpt lat="42.80906" lon="-0.51301">
        <ele>1655.22</ele>
        <time>2019-03-23T15:07:16Z</time>
      </trkpt>
      <trkpt lat="42.80913" lon="-0.51278">
        <ele>1654.07</ele>
        <time>2019-03-23T15:07:47Z</time>
      </trkpt>
      <trkpt lat="42.80922" lon="-0.51254">
        <ele>1655.1</ele>
        <time>2019-03-23T15:08:06Z</time>
      </trkpt>
      <trkpt lat="42.80931" lon="-0.5123">
        <ele>1656.9</ele>
        <time>2019-03-23T15:08:25Z</time>
      </trkpt>
      <trkpt lat="42.80941" lon="-0.51209">
        <ele>1655.32</ele>
        <time>2019-03-23T15:08:44Z</time>
      </trkpt>
      <trkpt lat="42.8095" lon="-0.51186">
        <ele>1656.04</ele>
        <time>2019-03-23T15:09:03Z</time>
      </trkpt>
      <trkpt lat="42.8096" lon="-0.51164">
        <ele>1657.91</ele>
        <time>2019-03-23T15:09:19Z</time>
      </trkpt>
      <trkpt lat="42.80967" lon="-0.51141">
        <ele>1659.94</ele>
        <time>2019-03-23T15:09:36Z</time>
      </trkpt>
      <trkpt lat="42.80972" lon="-0.51118">
        <ele>1660.36</ele>
        <time>2019-03-23T15:09:54Z</time>
      </trkpt>
    </trkseg>
  </trk>
</gpx>